Grayson, North Carolina
Current Conditions -  °F | °C
As of 9:15 AM on Monday 20 Oct 2014 (Local Time) from KGEV Reporting Station
Clear Clear  
Wind Chill: 49°   Ceiling: Unl
Heat Index: 49°   Visibility: 10mi
Dew Point: 40°   Wind: 3mph
Humidity: 72%   Direction: 120°ESE
Pressure: 30.11"   Gusts: NA
Location:  36.4481°N, 81.6486°W
Report Text: KGEV 201315Z AUTO 12003KT 10SM CLR 10/05 A3011 RMK AO2 T00950047
Loading
Personal Weather Stations






























Interactive Weather Map
Tropical Storm Tracking
New forecast layout! Learn more

10-Day Weather Forecast

Advertisements
Track Severe Weather on mobile